Redwood Lodge, California
Current Conditions -  °F | °C
As of 2:07 AM on Sunday 21 Dec 2014 (Local Time) from KUKI Reporting Station
Haze Haze  
Wind Chill: 54°   Ceiling: 800
Heat Index: 54°   Visibility: 2.5mi
Dew Point: 52°   Wind: 0mph
Humidity: 93%   Direction: NA
Pressure: 30.25"   Gusts: NA
Location:  39.4588°N, 123.715°W
Report Text: KUKI 211007Z AUTO 00000KT 2 1/2SM BR FEW004 OVC008 12/11 A3025 RMK AO2 T01220111
Loading
Personal Weather Stations






























Interactive Weather Map New forecast layout! Learn more

10-Day Weather Forecast

Advertisements
Track Severe Weather on mobile